Аэропорт
Ниигата (RJSN)

 RJSN / KIJ

Japan
JP-15
Ниигата
 37.95590, 139.12100  / 29 ft

 RJSN 182200Z 18007KT 9999 FEW010 BKN060 20/20 Q1012
 TAF RJSN 181705Z 1818/2000 22006KT 9999 FEW015 BKN030 TEMPO 1818/1820 3000 -SHRA BR FEW005 BKN008 BECMG 1901/1903 25016KT BECMG 1909/1912 19008KT

2020 © VATRUS division (Privacy Policy)